Terminal Aerodrome Forecast
Issued by NWS

Home | Current Version | Previous Version | Text Only | Print | Product List | Glossary On
Versions: 1 2 3 4 5 6 7 8 9 10 11
076
FTUS43 KEAX 211120
TAFSTJ
TAF
KSTJ 211120Z 2112/2212 35004KT P6SM SKC
     FM211500 06009KT P6SM BKN200
     FM212100 06011KT P6SM VCSH OVC150
     FM220600 05009KT P6SM OVC070=

USA.gov is the U.S. government's official web portal to all federal, state and local government web resources and services.